Terminal Aerodrome Forecast
Issued by NWS

Home | Current Version | Previous Version | Graphics & Text | Print | Product List | Glossary On
Versions: 1 2 3 4 5 6 7 8 9 10 11 12 13 14 15 16 17 18 19 20 21
000
FTUS43 KLSX 141129
TAFSUS
TAF
KSUS 141129Z 1412/1512 18005KT P6SM SCT050
     FM141900 20010G18KT P6SM SCT050
     FM150500 21010G20KT P6SM -SHRA VCTS BKN040CB
      TEMPO 1506/1509 5SM TSRA BKN030CB
     FM150900 29013G23KT 6SM -SHRA OVC025=

USA.gov is the U.S. government's official web portal to all federal, state and local government web resources and services.